sensor_id;sensor_type;location;lat;lon;timestamp;pressure;altitude;pressure_sealevel;temperature;humidity
66176;BME280;52977;44.816;20.538;2024-03-07T00:00:28;99452.63;;;10.78;98.66
66176;BME280;52977;44.816;20.538;2024-03-07T00:02:54;99444.94;;;10.71;98.56
66176;BME280;52977;44.816;20.538;2024-03-07T00:05:21;99439.38;;;10.68;99.93
66176;BME280;52977;44.816;20.538;2024-03-07T00:07:50;99439.50;;;10.71;99.17
66176;BME280;52977;44.816;20.538;2024-03-07T00:10:16;99440.44;;;10.75;98.46
66176;BME280;52977;44.816;20.538;2024-03-07T00:12:43;99435.78;;;10.76;98.37
66176;BME280;52977;44.816;20.538;2024-03-07T00:15:12;99437.03;;;10.78;98.41
66176;BME280;52977;44.816;20.538;2024-03-07T00:17:39;99442.03;;;10.76;97.76
66176;BME280;52977;44.816;20.538;2024-03-07T00:20:06;99440.44;;;10.75;98.17
66176;BME280;52977;44.816;20.538;2024-03-07T00:22:42;99442.72;;;10.73;97.82
66176;BME280;52977;44.816;20.538;2024-03-07T00:25:08;99438.72;;;10.71;98.67
66176;BME280;52977;44.816;20.538;2024-03-07T00:27:35;99445.63;;;10.68;98.52
66176;BME280;52977;44.816;20.538;2024-03-07T00:30:02;99437.09;;;10.70;98.30
66176;BME280;52977;44.816;20.538;2024-03-07T00:32:28;99435.19;;;10.70;97.99
66176;BME280;52977;44.816;20.538;2024-03-07T00:34:55;99437.75;;;10.67;98.68
66176;BME280;52977;44.816;20.538;2024-03-07T00:37:23;99427.78;;;10.71;98.10
66176;BME280;52977;44.816;20.538;2024-03-07T00:39:50;99433.09;;;10.67;97.71
66176;BME280;52977;44.816;20.538;2024-03-07T00:42:17;99430.50;;;10.71;97.52
66176;BME280;52977;44.816;20.538;2024-03-07T00:44:43;99425.38;;;10.69;97.63
66176;BME280;52977;44.816;20.538;2024-03-07T00:47:10;99421.84;;;10.69;97.83
66176;BME280;52977;44.816;20.538;2024-03-07T00:49:36;99424.28;;;10.70;97.76
66176;BME280;52977;44.816;20.538;2024-03-07T00:52:03;99426.06;;;10.66;97.70
66176;BME280;52977;44.816;20.538;2024-03-07T00:54:29;99428.31;;;10.64;97.94
66176;BME280;52977;44.816;20.538;2024-03-07T00:56:56;99427.63;;;10.67;97.80
66176;BME280;52977;44.816;20.538;2024-03-07T00:59:22;99427.84;;;10.62;97.41
66176;BME280;52977;44.816;20.538;2024-03-07T01:01:48;99424.28;;;10.62;97.59
66176;BME280;52977;44.816;20.538;2024-03-07T01:04:15;99423.34;;;10.57;97.48
66176;BME280;52977;44.816;20.538;2024-03-07T01:06:40;99423.31;;;10.66;97.08
66176;BME280;52977;44.816;20.538;2024-03-07T01:09:06;99423.97;;;10.63;97.36
66176;BME280;52977;44.816;20.538;2024-03-07T01:11:42;99404.41;;;10.61;97.39
66176;BME280;52977;44.816;20.538;2024-03-07T01:14:08;99412.44;;;10.57;96.92
66176;BME280;52977;44.816;20.538;2024-03-07T01:16:34;99417.44;;;10.55;97.58
66176;BME280;52977;44.816;20.538;2024-03-07T01:19:01;99416.94;;;10.53;97.84
66176;BME280;52977;44.816;20.538;2024-03-07T01:21:27;99410.03;;;10.56;97.52
66176;BME280;52977;44.816;20.538;2024-03-07T01:23:53;99413.91;;;10.55;97.61
66176;BME280;52977;44.816;20.538;2024-03-07T01:26:19;99409.38;;;10.59;97.59
66176;BME280;52977;44.816;20.538;2024-03-07T01:28:44;99406.13;;;10.66;96.83
66176;BME280;52977;44.816;20.538;2024-03-07T01:31:11;99399.88;;;10.65;97.13
66176;BME280;52977;44.816;20.538;2024-03-07T01:33:37;99403.28;;;10.62;96.68
66176;BME280;52977;44.816;20.538;2024-03-07T01:36:03;99403.91;;;10.59;96.88
66176;BME280;52977;44.816;20.538;2024-03-07T01:38:31;99397.81;;;10.62;97.25
66176;BME280;52977;44.816;20.538;2024-03-07T01:40:56;99396.53;;;10.59;96.62
66176;BME280;52977;44.816;20.538;2024-03-07T01:43:23;99400.41;;;10.58;97.03
66176;BME280;52977;44.816;20.538;2024-03-07T01:45:53;99401.84;;;10.56;96.99
66176;BME280;52977;44.816;20.538;2024-03-07T01:48:26;99392.53;;;10.57;96.72
66176;BME280;52977;44.816;20.538;2024-03-07T01:50:55;99393.81;;;10.59;96.92
66176;BME280;52977;44.816;20.538;2024-03-07T01:53:22;99398.31;;;10.55;97.39
66176;BME280;52977;44.816;20.538;2024-03-07T01:55:50;99395.94;;;10.54;97.50
66176;BME280;52977;44.816;20.538;2024-03-07T01:58:18;99393.53;;;10.52;97.21
66176;BME280;52977;44.816;20.538;2024-03-07T02:00:45;99405.41;;;10.56;97.61
66176;BME280;52977;44.816;20.538;2024-03-07T02:03:12;99402.19;;;10.54;96.71
66176;BME280;52977;44.816;20.538;2024-03-07T02:05:40;99403.78;;;10.55;96.50
66176;BME280;52977;44.816;20.538;2024-03-07T02:08:06;99408.91;;;10.57;96.66
66176;BME280;52977;44.816;20.538;2024-03-07T02:10:38;99398.16;;;10.60;96.67
66176;BME280;52977;44.816;20.538;2024-03-07T02:13:05;99392.69;;;10.60;96.75
66176;BME280;52977;44.816;20.538;2024-03-07T02:15:32;99403.00;;;10.55;96.28
66176;BME280;52977;44.816;20.538;2024-03-07T02:17:58;99394.47;;;10.56;96.73
66176;BME280;52977;44.816;20.538;2024-03-07T02:20:25;99398.00;;;10.57;96.71
66176;BME280;52977;44.816;20.538;2024-03-07T02:22:54;99405.06;;;10.58;97.31
66176;BME280;52977;44.816;20.538;2024-03-07T02:25:21;99400.13;;;10.51;97.26
66176;BME280;52977;44.816;20.538;2024-03-07T02:27:48;99394.88;;;10.37;98.35
66176;BME280;52977;44.816;20.538;2024-03-07T02:30:14;99390.81;;;10.43;98.56
66176;BME280;52977;44.816;20.538;2024-03-07T02:32:40;99390.81;;;10.43;98.38
66176;BME280;52977;44.816;20.538;2024-03-07T02:35:07;99392.25;;;10.50;98.56
66176;BME280;52977;44.816;20.538;2024-03-07T02:37:34;99387.47;;;10.47;98.68
66176;BME280;52977;44.816;20.538;2024-03-07T02:40:00;99395.16;;;10.45;99.00
66176;BME280;52977;44.816;20.538;2024-03-07T02:42:27;99387.75;;;10.45;99.39
66176;BME280;52977;44.816;20.538;2024-03-07T02:44:53;99394.84;;;10.46;99.09
66176;BME280;52977;44.816;20.538;2024-03-07T02:47:20;99390.19;;;10.47;98.94
66176;BME280;52977;44.816;20.538;2024-03-07T02:49:46;99393.09;;;10.41;99.67
66176;BME280;52977;44.816;20.538;2024-03-07T02:52:12;99402.91;;;10.42;99.75
66176;BME280;52977;44.816;20.538;2024-03-07T02:54:39;99405.28;;;10.44;99.40
66176;BME280;52977;44.816;20.538;2024-03-07T02:57:06;99405.91;;;10.50;99.30
66176;BME280;52977;44.816;20.538;2024-03-07T02:59:33;99401.09;;;10.47;98.52
66176;BME280;52977;44.816;20.538;2024-03-07T03:01:59;99401.75;;;10.43;99.65
66176;BME280;52977;44.816;20.538;2024-03-07T03:04:26;99412.66;;;10.43;99.68
66176;BME280;52977;44.816;20.538;2024-03-07T03:06:55;99404.00;;;10.41;99.06
66176;BME280;52977;44.816;20.538;2024-03-07T03:09:22;99403.34;;;10.45;99.67
66176;BME280;52977;44.816;20.538;2024-03-07T03:11:50;99404.47;;;10.43;99.67
66176;BME280;52977;44.816;20.538;2024-03-07T03:14:17;99398.06;;;10.39;99.71
66176;BME280;52977;44.816;20.538;2024-03-07T03:16:44;99410.75;;;10.44;99.58
66176;BME280;52977;44.816;20.538;2024-03-07T03:19:10;99398.69;;;10.45;99.82
66176;BME280;52977;44.816;20.538;2024-03-07T03:21:36;99404.81;;;10.33;99.97
66176;BME280;52977;44.816;20.538;2024-03-07T03:24:03;99399.06;;;10.35;100.00
66176;BME280;52977;44.816;20.538;2024-03-07T03:26:29;99391.38;;;10.37;99.92
66176;BME280;52977;44.816;20.538;2024-03-07T03:28:58;99398.72;;;10.36;100.00
66176;BME280;52977;44.816;20.538;2024-03-07T03:31:25;99394.25;;;10.32;100.00
66176;BME280;52977;44.816;20.538;2024-03-07T03:33:51;99387.81;;;10.36;100.00
66176;BME280;52977;44.816;20.538;2024-03-07T03:36:17;99392.94;;;10.38;100.00
66176;BME280;52977;44.816;20.538;2024-03-07T03:38:45;99400.03;;;10.30;100.00
66176;BME280;52977;44.816;20.538;2024-03-07T03:41:15;99398.72;;;10.36;99.80
66176;BME280;52977;44.816;20.538;2024-03-07T03:43:43;99399.84;;;10.35;100.00
66176;BME280;52977;44.816;20.538;2024-03-07T03:46:10;99396.34;;;10.35;100.00
66176;BME280;52977;44.816;20.538;2024-03-07T03:48:40;99402.41;;;10.40;100.00
66176;BME280;52977;44.816;20.538;2024-03-07T03:51:07;99401.94;;;10.38;100.00
66176;BME280;52977;44.816;20.538;2024-03-07T03:53:37;99400.66;;;10.36;100.00
66176;BME280;52977;44.816;20.538;2024-03-07T03:56:04;99401.94;;;10.38;100.00
66176;BME280;52977;44.816;20.538;2024-03-07T03:58:30;99405.31;;;10.35;100.00
66176;BME280;52977;44.816;20.538;2024-03-07T04:00:56;99410.59;;;10.40;100.00
66176;BME280;52977;44.816;20.538;2024-03-07T04:03:24;99401.94;;;10.38;100.00
66176;BME280;52977;44.816;20.538;2024-03-07T04:05:51;99407.72;;;10.37;100.00
66176;BME280;52977;44.816;20.538;2024-03-07T04:08:17;99403.84;;;10.38;100.00
66176;BME280;52977;44.816;20.538;2024-03-07T04:10:46;99404.00;;;10.41;100.00
66176;BME280;52977;44.816;20.538;2024-03-07T04:13:12;99406.13;;;10.36;100.00
66176;BME280;52977;44.816;20.538;2024-03-07T04:15:39;99412.38;;;10.36;100.00
66176;BME280;52977;44.816;20.538;2024-03-07T04:18:06;99414.78;;;10.38;100.00
66176;BME280;52977;44.816;20.538;2024-03-07T04:20:33;99415.25;;;10.40;100.00
66176;BME280;52977;44.816;20.538;2024-03-07T04:22:59;99416.72;;;10.37;100.00
66176;BME280;52977;44.816;20.538;2024-03-07T04:25:25;99418.47;;;10.33;100.00
66176;BME280;52977;44.816;20.538;2024-03-07T04:27:52;99416.84;;;10.32;100.00
66176;BME280;52977;44.816;20.538;2024-03-07T04:30:18;99425.56;;;10.34;100.00
66176;BME280;52977;44.816;20.538;2024-03-07T04:32:44;99416.84;;;10.32;100.00
66176;BME280;52977;44.816;20.538;2024-03-07T04:35:10;99418.41;;;10.03;100.00
66176;BME280;52977;44.816;20.538;2024-03-07T04:37:39;99420.78;;;10.14;100.00
66176;BME280;52977;44.816;20.538;2024-03-07T04:40:08;99426.06;;;10.19;100.00
66176;BME280;52977;44.816;20.538;2024-03-07T04:42:45;99422.34;;;10.23;100.00
66176;BME280;52977;44.816;20.538;2024-03-07T04:45:12;99430.47;;;9.85;100.00
66176;BME280;52977;44.816;20.538;2024-03-07T04:47:42;99420.00;;;10.04;100.00
66176;BME280;52977;44.816;20.538;2024-03-07T04:50:10;99424.63;;;10.13;100.00
66176;BME280;52977;44.816;20.538;2024-03-07T04:52:40;99420.66;;;10.01;100.00
66176;BME280;52977;44.816;20.538;2024-03-07T04:55:07;99437.78;;;10.11;100.00
66176;BME280;52977;44.816;20.538;2024-03-07T04:57:37;99432.41;;;9.84;100.00
66176;BME280;52977;44.816;20.538;2024-03-07T05:00:09;99433.50;;;9.92;100.00
66176;BME280;52977;44.816;20.538;2024-03-07T05:02:47;99431.09;;;9.99;100.00
66176;BME280;52977;44.816;20.538;2024-03-07T05:05:13;99430.13;;;9.95;100.00
66176;BME280;52977;44.816;20.538;2024-03-07T05:07:39;99440.13;;;9.65;100.00
66176;BME280;52977;44.816;20.538;2024-03-07T05:10:07;99446.84;;;9.76;100.00
66176;BME280;52977;44.816;20.538;2024-03-07T05:12:33;99435.47;;;9.74;100.00
66176;BME280;52977;44.816;20.538;2024-03-07T05:15:00;99443.31;;;9.75;100.00
66176;BME280;52977;44.816;20.538;2024-03-07T05:17:26;99439.78;;;9.84;100.00
66176;BME280;52977;44.816;20.538;2024-03-07T05:19:54;99441.84;;;9.96;100.00
66176;BME280;52977;44.816;20.538;2024-03-07T05:22:20;99438.13;;;10.00;100.00
66176;BME280;52977;44.816;20.538;2024-03-07T05:24:50;99438.47;;;9.90;99.93
66176;BME280;52977;44.816;20.538;2024-03-07T05:27:17;99442.31;;;9.89;99.41
66176;BME280;52977;44.816;20.538;2024-03-07T05:29:43;99446.19;;;9.97;99.09
66176;BME280;52977;44.816;20.538;2024-03-07T05:32:26;99439.28;;;9.99;98.74
66176;BME280;52977;44.816;20.538;2024-03-07T05:34:53;99440.41;;;9.81;99.48
66176;BME280;52977;44.816;20.538;2024-03-07T05:37:20;99453.28;;;9.54;100.00
66176;BME280;52977;44.816;20.538;2024-03-07T05:39:50;99452.13;;;9.37;100.00
66176;BME280;52977;44.816;20.538;2024-03-07T05:42:16;99446.38;;;9.56;100.00
66176;BME280;52977;44.816;20.538;2024-03-07T05:44:43;99452.16;;;9.55;100.00
66176;BME280;52977;44.816;20.538;2024-03-07T05:47:10;99449.41;;;9.72;100.00
66176;BME280;52977;44.816;20.538;2024-03-07T05:49:39;99463.19;;;9.85;98.98
66176;BME280;52977;44.816;20.538;2024-03-07T05:52:06;99470.25;;;9.51;100.00
66176;BME280;52977;44.816;20.538;2024-03-07T05:54:33;99465.47;;;9.48;100.00
66176;BME280;52977;44.816;20.538;2024-03-07T05:56:59;99465.28;;;9.53;100.00
66176;BME280;52977;44.816;20.538;2024-03-07T05:59:26;99467.06;;;9.66;100.00
66176;BME280;52977;44.816;20.538;2024-03-07T06:01:54;99467.22;;;9.44;100.00
66176;BME280;52977;44.816;20.538;2024-03-07T06:04:22;99470.91;;;9.48;100.00
66176;BME280;52977;44.816;20.538;2024-03-07T06:06:47;99473.00;;;9.51;100.00
66176;BME280;52977;44.816;20.538;2024-03-07T06:09:14;99474.41;;;9.57;100.00
66176;BME280;52977;44.816;20.538;2024-03-07T06:11:41;99464.00;;;9.59;100.00
66176;BME280;52977;44.816;20.538;2024-03-07T06:14:10;99477.16;;;9.57;100.00
66176;BME280;52977;44.816;20.538;2024-03-07T06:16:39;99483.56;;;9.61;99.66
66176;BME280;52977;44.816;20.538;2024-03-07T06:19:07;99477.16;;;9.57;99.76
66176;BME280;52977;44.816;20.538;2024-03-07T06:21:34;99478.44;;;9.51;98.42
66176;BME280;52977;44.816;20.538;2024-03-07T06:24:01;99477.16;;;9.39;98.03
66176;BME280;52977;44.816;20.538;2024-03-07T06:26:35;99480.50;;;9.54;97.65
66176;BME280;52977;44.816;20.538;2024-03-07T06:29:10;99486.63;;;9.51;96.03
66176;BME280;52977;44.816;20.538;2024-03-07T06:31:40;99474.09;;;9.50;95.86
66176;BME280;52977;44.816;20.538;2024-03-07T06:34:07;99488.53;;;9.24;98.17
66176;BME280;52977;44.816;20.538;2024-03-07T06:36:34;99483.72;;;9.38;97.76
66176;BME280;52977;44.816;20.538;2024-03-07T06:39:01;99486.94;;;9.40;99.69
66176;BME280;52977;44.816;20.538;2024-03-07T06:41:33;99486.13;;;9.49;99.70
66176;BME280;52977;44.816;20.538;2024-03-07T06:44:00;99496.88;;;9.36;99.99
66176;BME280;52977;44.816;20.538;2024-03-07T06:46:27;99499.41;;;9.24;100.00
66176;BME280;52977;44.816;20.538;2024-03-07T06:48:53;99495.06;;;9.23;98.98
66176;BME280;52977;44.816;20.538;2024-03-07T06:51:20;99497.97;;;9.27;98.84
66176;BME280;52977;44.816;20.538;2024-03-07T06:53:46;99501.50;;;9.27;99.02
66176;BME280;52977;44.816;20.538;2024-03-07T06:56:16;99499.88;;;9.26;99.08
66176;BME280;52977;44.816;20.538;2024-03-07T06:58:43;99506.63;;;9.29;98.66
66176;BME280;52977;44.816;20.538;2024-03-07T07:01:10;99516.72;;;9.37;99.55
66176;BME280;52977;44.816;20.538;2024-03-07T07:03:39;99513.81;;;9.24;98.10
66176;BME280;52977;44.816;20.538;2024-03-07T07:06:06;99523.13;;;9.32;98.66
66176;BME280;52977;44.816;20.538;2024-03-07T07:08:33;99519.91;;;9.30;97.28
66176;BME280;52977;44.816;20.538;2024-03-07T07:11:00;99512.84;;;9.20;97.24
66176;BME280;52977;44.816;20.538;2024-03-07T07:13:26;99514.78;;;9.20;96.31
66176;BME280;52977;44.816;20.538;2024-03-07T07:15:52;99515.44;;;9.17;95.04
66176;BME280;52977;44.816;20.538;2024-03-07T07:18:18;99512.34;;;9.10;95.20
66176;BME280;52977;44.816;20.538;2024-03-07T07:20:44;99512.66;;;8.99;96.54
66176;BME280;52977;44.816;20.538;2024-03-07T07:23:10;99513.09;;;8.93;96.70
66176;BME280;52977;44.816;20.538;2024-03-07T07:25:36;99511.00;;;8.89;96.58
66176;BME280;52977;44.816;20.538;2024-03-07T07:28:03;99520.03;;;8.99;95.34
66176;BME280;52977;44.816;20.538;2024-03-07T07:30:33;99528.97;;;8.99;95.33
66176;BME280;52977;44.816;20.538;2024-03-07T07:32:59;99522.56;;;8.95;95.14
66176;BME280;52977;44.816;20.538;2024-03-07T07:35:26;99531.06;;;9.02;94.91
66176;BME280;52977;44.816;20.538;2024-03-07T07:37:52;99531.56;;;9.04;95.02
66176;BME280;52977;44.816;20.538;2024-03-07T07:40:20;99528.53;;;9.06;95.86
66176;BME280;52977;44.816;20.538;2024-03-07T07:42:50;99539.06;;;8.99;94.33
66176;BME280;52977;44.816;20.538;2024-03-07T07:45:19;99546.75;;;9.05;99.01
66176;BME280;52977;44.816;20.538;2024-03-07T07:47:47;99540.41;;;9.28;98.07
66176;BME280;52977;44.816;20.538;2024-03-07T07:50:17;99542.81;;;9.20;95.51
66176;BME280;52977;44.816;20.538;2024-03-07T07:52:51;99543.78;;;9.16;95.38
66176;BME280;52977;44.816;20.538;2024-03-07T07:55:24;99548.38;;;9.06;95.44
66176;BME280;52977;44.816;20.538;2024-03-07T07:57:55;99555.91;;;9.10;95.12
66176;BME280;52977;44.816;20.538;2024-03-07T08:00:28;99549.97;;;8.99;95.80
66176;BME280;52977;44.816;20.538;2024-03-07T08:03:02;99553.13;;;8.92;95.93
66176;BME280;52977;44.816;20.538;2024-03-07T08:05:37;99551.66;;;8.86;95.88
66176;BME280;52977;44.816;20.538;2024-03-07T08:08:05;99558.41;;;8.88;95.64
66176;BME280;52977;44.816;20.538;2024-03-07T08:10:36;99555.66;;;8.80;96.04
66176;BME280;52977;44.816;20.538;2024-03-07T08:13:04;99558.81;;;8.73;96.99
66176;BME280;52977;44.816;20.538;2024-03-07T08:15:39;99562.84;;;8.76;96.12
66176;BME280;52977;44.816;20.538;2024-03-07T08:18:05;99561.22;;;8.75;97.08
66176;BME280;52977;44.816;20.538;2024-03-07T08:20:51;99559.44;;;8.70;96.66
66176;BME280;52977;44.816;20.538;2024-03-07T08:23:17;99558.81;;;8.73;96.95
66176;BME280;52977;44.816;20.538;2024-03-07T08:25:44;99565.91;;;8.51;96.90
66176;BME280;52977;44.816;20.538;2024-03-07T08:28:10;99560.97;;;8.53;97.28
66176;BME280;52977;44.816;20.538;2024-03-07T08:30:37;99560.19;;;8.62;98.08
66176;BME280;52977;44.816;20.538;2024-03-07T08:33:03;99565.44;;;8.58;97.26
66176;BME280;52977;44.816;20.538;2024-03-07T08:35:31;99567.50;;;8.30;98.47
66176;BME280;52977;44.816;20.538;2024-03-07T08:37:57;99564.63;;;8.49;99.81
66176;BME280;52977;44.816;20.538;2024-03-07T08:40:25;99564.31;;;8.50;97.71
66176;BME280;52977;44.816;20.538;2024-03-07T08:42:53;99564.53;;;8.63;98.03
66176;BME280;52977;44.816;20.538;2024-03-07T08:45:22;99570.91;;;8.58;98.43
66176;BME280;52977;44.816;20.538;2024-03-07T08:47:50;99574.13;;;8.60;96.22
66176;BME280;52977;44.816;20.538;2024-03-07T08:50:18;99580.16;;;8.12;100.00
66176;BME280;52977;44.816;20.538;2024-03-07T08:52:45;99579.63;;;8.24;100.00
66176;BME280;52977;44.816;20.538;2024-03-07T08:55:12;99588.31;;;7.89;100.00
66176;BME280;52977;44.816;20.538;2024-03-07T08:57:40;99583.50;;;8.09;100.00
66176;BME280;52977;44.816;20.538;2024-03-07T09:00:07;99591.00;;;8.26;99.52
66176;BME280;52977;44.816;20.538;2024-03-07T09:02:34;99599.56;;;8.19;99.59
66176;BME280;52977;44.816;20.538;2024-03-07T09:05:04;99592.28;;;8.28;98.92
66176;BME280;52977;44.816;20.538;2024-03-07T09:07:31;99587.09;;;8.41;99.01
66176;BME280;52977;44.816;20.538;2024-03-07T09:09:57;99587.56;;;8.43;98.36
66176;BME280;52977;44.816;20.538;2024-03-07T09:12:24;99587.28;;;8.44;98.28
66176;BME280;52977;44.816;20.538;2024-03-07T09:15:10;99587.19;;;8.49;99.57
66176;BME280;52977;44.816;20.538;2024-03-07T09:17:37;99587.84;;;8.55;98.82
66176;BME280;52977;44.816;20.538;2024-03-07T09:20:07;99591.63;;;8.23;99.98
66176;BME280;52977;44.816;20.538;2024-03-07T09:22:35;99596.19;;;8.36;100.00
66176;BME280;52977;44.816;20.538;2024-03-07T09:25:01;99586.69;;;8.47;99.17
66176;BME280;52977;44.816;20.538;2024-03-07T09:27:27;99591.41;;;8.55;100.00
66176;BME280;52977;44.816;20.538;2024-03-07T09:29:54;99603.75;;;8.62;100.00
66176;BME280;52977;44.816;20.538;2024-03-07T09:32:20;99605.78;;;8.56;100.00
66176;BME280;52977;44.816;20.538;2024-03-07T09:34:47;99603.53;;;8.58;99.69
66176;BME280;52977;44.816;20.538;2024-03-07T09:37:15;99604.75;;;8.75;99.11
66176;BME280;52977;44.816;20.538;2024-03-07T09:39:41;99608.47;;;8.79;98.77
66176;BME280;52977;44.816;20.538;2024-03-07T09:42:08;99612.06;;;8.88;97.87
66176;BME280;52977;44.816;20.538;2024-03-07T09:44:40;99615.25;;;8.90;97.89
66176;BME280;52977;44.816;20.538;2024-03-07T09:47:07;99613.19;;;8.96;97.10
66176;BME280;52977;44.816;20.538;2024-03-07T09:49:34;99613.25;;;9.04;96.99
66176;BME280;52977;44.816;20.538;2024-03-07T09:52:07;99610.03;;;9.02;97.88
66176;BME280;52977;44.816;20.538;2024-03-07T09:54:38;99622.41;;;9.09;97.77
66176;BME280;52977;44.816;20.538;2024-03-07T09:57:06;99628.63;;;9.09;97.69
66176;BME280;52977;44.816;20.538;2024-03-07T09:59:35;99614.91;;;9.14;96.76
66176;BME280;52977;44.816;20.538;2024-03-07T10:02:11;99620.59;;;9.04;96.55
66176;BME280;52977;44.816;20.538;2024-03-07T10:04:59;99621.72;;;9.03;95.98
66176;BME280;52977;44.816;20.538;2024-03-07T10:07:45;99621.09;;;9.06;96.12
66176;BME280;52977;44.816;20.538;2024-03-07T10:10:31;99624.41;;;8.94;98.08
66176;BME280;52977;44.816;20.538;2024-03-07T10:13:17;99621.53;;;8.23;100.00
66176;BME280;52977;44.816;20.538;2024-03-07T10:16:02;99620.75;;;8.67;97.95
66176;BME280;52977;44.816;20.538;2024-03-07T10:18:31;99628.03;;;8.81;97.53
66176;BME280;52977;44.816;20.538;2024-03-07T10:20:57;99628.38;;;8.88;97.66
66176;BME280;52977;44.816;20.538;2024-03-07T10:23:43;99624.56;;;8.89;97.35
66176;BME280;52977;44.816;20.538;2024-03-07T10:26:29;99627.41;;;8.84;95.25
66176;BME280;52977;44.816;20.538;2024-03-07T10:29:16;99627.41;;;8.84;95.70
66176;BME280;52977;44.816;20.538;2024-03-07T10:32:11;99635.25;;;8.85;96.16
66176;BME280;52977;44.816;20.538;2024-03-07T10:34:57;99627.47;;;8.70;97.63
66176;BME280;52977;44.816;20.538;2024-03-07T10:37:43;99633.50;;;8.89;96.10
66176;BME280;52977;44.816;20.538;2024-03-07T10:40:29;99630.41;;;8.74;95.78
66176;BME280;52977;44.816;20.538;2024-03-07T10:43:16;99631.19;;;8.74;96.67
66176;BME280;52977;44.816;20.538;2024-03-07T10:46:05;99633.97;;;8.37;98.89
66176;BME280;52977;44.816;20.538;2024-03-07T10:48:55;99643.03;;;8.33;100.00
66176;BME280;52977;44.816;20.538;2024-03-07T10:51:45;99638.59;;;8.37;98.90
66176;BME280;52977;44.816;20.538;2024-03-07T10:54:46;99632.47;;;8.31;100.00
66176;BME280;52977;44.816;20.538;2024-03-07T10:57:46;99638.44;;;8.56;98.19
66176;BME280;52977;44.816;20.538;2024-03-07T11:00:35;99640.88;;;8.66;97.97
66176;BME280;52977;44.816;20.538;2024-03-07T11:03:21;99642.63;;;8.62;97.06
66176;BME280;52977;44.816;20.538;2024-03-07T11:06:08;99638.63;;;8.60;96.16
66176;BME280;52977;44.816;20.538;2024-03-07T11:08:55;99632.06;;;8.61;96.18
66176;BME280;52977;44.816;20.538;2024-03-07T11:11:42;99636.19;;;8.58;96.82
66176;BME280;52977;44.816;20.538;2024-03-07T11:14:28;99640.59;;;8.45;97.50
66176;BME280;52977;44.816;20.538;2024-03-07T11:16:54;99636.25;;;8.44;97.66
66176;BME280;52977;44.816;20.538;2024-03-07T11:19:31;99637.25;;;8.48;99.94
66176;BME280;52977;44.816;20.538;2024-03-07T11:22:30;99633.97;;;8.60;98.31
66176;BME280;52977;44.816;20.538;2024-03-07T11:25:19;99631.00;;;8.25;100.00
66176;BME280;52977;44.816;20.538;2024-03-07T11:28:05;99632.44;;;8.45;100.00
66176;BME280;52977;44.816;20.538;2024-03-07T11:30:51;99629.66;;;8.59;99.82
66176;BME280;52977;44.816;20.538;2024-03-07T11:33:37;99636.19;;;8.35;100.00
66176;BME280;52977;44.816;20.538;2024-03-07T11:36:42;99634.84;;;8.47;100.00
66176;BME280;52977;44.816;20.538;2024-03-07T11:39:42;99636.97;;;8.50;99.14
66176;BME280;52977;44.816;20.538;2024-03-07T11:42:29;99651.72;;;8.58;98.89
66176;BME280;52977;44.816;20.538;2024-03-07T11:45:15;99644.63;;;8.48;97.93
66176;BME280;52977;44.816;20.538;2024-03-07T11:48:11;99646.59;;;8.56;98.61
66176;BME280;52977;44.816;20.538;2024-03-07T11:50:56;99649.69;;;8.63;96.60
66176;BME280;52977;44.816;20.538;2024-03-07T11:53:43;99654.50;;;8.66;97.35
66176;BME280;52977;44.816;20.538;2024-03-07T11:56:29;99656.50;;;8.52;98.09
66176;BME280;52977;44.816;20.538;2024-03-07T11:59:14;99660.50;;;8.54;98.34
66176;BME280;52977;44.816;20.538;2024-03-07T12:02:00;99668.69;;;8.54;98.49
66176;BME280;52977;44.816;20.538;2024-03-07T12:04:46;99666.44;;;8.57;100.00
66176;BME280;52977;44.816;20.538;2024-03-07T12:07:33;99666.31;;;8.62;98.92
66176;BME280;52977;44.816;20.538;2024-03-07T12:10:19;99659.47;;;8.64;99.13
66176;BME280;52977;44.816;20.538;2024-03-07T12:13:06;99660.13;;;8.70;99.72
66176;BME280;52977;44.816;20.538;2024-03-07T12:15:52;99668.41;;;8.65;100.00
66176;BME280;52977;44.816;20.538;2024-03-07T12:18:38;99667.63;;;8.64;100.00
66176;BME280;52977;44.816;20.538;2024-03-07T12:21:05;99666.75;;;8.55;100.00
66176;BME280;52977;44.816;20.538;2024-03-07T12:23:38;99673.44;;;8.71;100.00
66176;BME280;52977;44.816;20.538;2024-03-07T12:26:05;99663.47;;;8.67;100.00
66176;BME280;52977;44.816;20.538;2024-03-07T12:28:31;99667.50;;;8.69;100.00
66176;BME280;52977;44.816;20.538;2024-03-07T12:31:01;99661.91;;;8.75;100.00
66176;BME280;52977;44.816;20.538;2024-03-07T12:33:29;99655.56;;;8.79;100.00
66176;BME280;52977;44.816;20.538;2024-03-07T12:35:57;99667.03;;;8.76;99.30
66176;BME280;52977;44.816;20.538;2024-03-07T12:38:32;99672.63;;;8.48;100.00
66176;BME280;52977;44.816;20.538;2024-03-07T12:41:03;99658.66;;;8.64;100.00
66176;BME280;52977;44.816;20.538;2024-03-07T12:43:50;99668.75;;;8.27;100.00
66176;BME280;52977;44.816;20.538;2024-03-07T12:46:17;99666.47;;;8.43;100.00
66176;BME280;52977;44.816;20.538;2024-03-07T12:48:43;99673.50;;;8.58;100.00
66176;BME280;52977;44.816;20.538;2024-03-07T12:51:15;99669.91;;;8.71;99.26
66176;BME280;52977;44.816;20.538;2024-03-07T12:53:44;99674.44;;;8.53;100.00
66176;BME280;52977;44.816;20.538;2024-03-07T12:56:10;99668.41;;;8.65;100.00
66176;BME280;52977;44.816;20.538;2024-03-07T12:58:36;99670.22;;;8.69;100.00
66176;BME280;52977;44.816;20.538;2024-03-07T13:01:02;99657.59;;;8.74;100.00
66176;BME280;52977;44.816;20.538;2024-03-07T13:03:28;99667.06;;;8.53;100.00
66176;BME280;52977;44.816;20.538;2024-03-07T13:05:57;99659.81;;;8.71;100.00
66176;BME280;52977;44.816;20.538;2024-03-07T13:08:28;99668.78;;;8.72;100.00
66176;BME280;52977;44.816;20.538;2024-03-07T13:10:57;99666.38;;;8.70;100.00